Time;durP1;ratioP1;P1;durP2;ratioP2;P2;SDS_P1;SDS_P2;PMS_P1;PMS_P2;Temp;Humidity;BMP_temperature;BMP_pressure;BME280_temperature;BME280_humidity;BME280_pressure;Samples;Min_cycle;Max_cycle;Signal;HPM_P1;HPM_P2
2021/11/02 00:00:15;;;;;;;10.95;4.07;;;17.20;99.90;;;;;;5133092;28;20116;-59
2021/11/02 00:02:44;;;;;;;8.80;4.90;;;17.20;99.90;;;;;;5133218;28;20047;-59
2021/11/02 00:05:14;;;;;;;9.63;4.30;;;17.20;99.90;;;;;;5116478;28;20062;-59
2021/11/02 00:07:41;;;;;;;13.00;4.05;;;17.30;99.90;;;;;;5133260;28;20128;-59
2021/11/02 00:10:09;;;;;;;8.65;3.97;;;17.30;99.90;;;;;;5132972;28;20043;-59
2021/11/02 00:12:37;;;;;;;10.18;4.10;;;17.30;99.90;;;;;;5133184;28;20088;-59
2021/11/02 00:15:06;;;;;;;8.93;3.22;;;17.30;99.90;;;;;;5116310;28;20051;-59
2021/11/02 00:17:37;;;;;;;10.65;4.43;;;17.30;99.90;;;;;;5116341;28;20039;-59
2021/11/02 00:20:08;;;;;;;7.53;4.18;;;17.30;99.90;;;;;;5134306;27;20427;-59
2021/11/02 00:22:38;;;;;;;5.45;3.17;;;17.30;99.90;;;;;;5133083;28;20580;-59
2021/11/02 00:25:06;;;;;;;8.93;3.05;;;17.30;99.90;;;;;;5134086;27;20047;-59
2021/11/02 00:27:41;;;;;;;7.65;2.70;;;17.40;99.90;;;;;;5133079;28;20091;-59
2021/11/02 00:30:11;;;;;;;7.18;3.28;;;17.40;99.90;;;;;;5099326;28;20054;-59
2021/11/02 00:32:41;;;;;;;7.78;3.08;;;17.40;99.90;;;;;;5116498;28;20046;-59
2021/11/02 00:35:11;;;;;;;5.03;3.25;;;17.40;99.90;;;;;;5132833;28;20043;-59
2021/11/02 00:37:39;;;;;;;5.70;2.88;;;17.40;99.90;;;;;;5134013;28;20062;-59
2021/11/02 00:40:10;;;;;;;7.18;3.92;;;17.40;99.90;;;;;;5133032;28;20434;-59
2021/11/02 00:42:40;;;;;;;6.60;2.60;;;17.40;99.90;;;;;;5116087;28;20047;-59
2021/11/02 00:45:12;;;;;;;4.22;2.85;;;17.40;99.90;;;;;;5133180;28;20078;-59
2021/11/02 00:47:40;;;;;;;7.82;3.15;;;17.40;99.90;;;;;;5132863;28;20389;-59
2021/11/02 00:50:10;;;;;;;6.40;3.03;;;17.40;99.90;;;;;;5132705;28;20104;-59
2021/11/02 00:52:41;;;;;;;8.07;3.00;;;17.40;99.90;;;;;;5098976;28;20133;-59
2021/11/02 00:55:09;;;;;;;4.05;2.30;;;17.40;99.90;;;;;;5132793;28;20084;-59
2021/11/02 00:57:37;;;;;;;4.93;2.72;;;17.40;99.90;;;;;;5133955;27;20130;-59
2021/11/02 01:00:09;;;;;;;4.03;2.03;;;17.40;99.90;;;;;;5136487;27;20464;-59
2021/11/02 01:02:36;;;;;;;5.85;2.22;;;17.40;99.90;;;;;;5119259;27;20065;-59
2021/11/02 01:05:05;;;;;;;3.45;2.20;;;17.40;99.90;;;;;;5137496;27;20125;-59
2021/11/02 01:07:33;;;;;;;6.95;2.78;;;17.30;99.90;;;;;;5136212;27;20039;-60
2021/11/02 01:10:02;;;;;;;8.68;2.42;;;17.40;99.90;;;;;;5136291;27;20035;-59
2021/11/02 01:12:29;;;;;;;5.75;2.28;;;17.30;99.90;;;;;;5119305;27;20080;-59
2021/11/02 01:14:58;;;;;;;7.53;2.67;;;17.30;99.90;;;;;;5136116;27;20154;-59
2021/11/02 01:17:25;;;;;;;4.85;2.45;;;17.30;99.90;;;;;;5137178;27;20039;-59
2021/11/02 01:19:54;;;;;;;3.17;1.75;;;17.40;99.90;;;;;;5102447;27;20043;-59
2021/11/02 01:22:22;;;;;;;5.40;2.38;;;17.30;99.90;;;;;;5135917;27;20043;-59
2021/11/02 01:24:50;;;;;;;5.85;2.40;;;17.40;99.90;;;;;;5137170;27;20057;-59
2021/11/02 01:27:18;;;;;;;5.50;2.60;;;17.40;99.90;;;;;;5135788;27;20079;-59
2021/11/02 01:29:47;;;;;;;3.80;1.90;;;17.40;99.90;;;;;;5135829;27;20134;-59
2021/11/02 01:32:15;;;;;;;5.93;1.98;;;17.40;99.90;;;;;;5135464;27;20377;-59
2021/11/02 01:34:48;;;;;;;3.35;1.77;;;17.40;99.90;;;;;;5119588;27;20043;-59
2021/11/02 01:37:15;;;;;;;5.20;1.67;;;17.40;99.90;;;;;;5135636;27;20047;-59
2021/11/02 01:39:43;;;;;;;4.68;1.95;;;17.40;99.90;;;;;;5136897;27;20095;-59
2021/11/02 01:42:12;;;;;;;2.83;2.10;;;17.40;99.90;;;;;;5118479;27;20055;-59
2021/11/02 01:44:41;;;;;;;4.68;2.58;;;17.40;99.90;;;;;;5118721;27;20118;-59
2021/11/02 01:47:11;;;;;;;5.47;2.30;;;17.40;99.90;;;;;;5119006;27;20063;-59
2021/11/02 01:49:39;;;;;;;3.50;2.03;;;17.50;99.90;;;;;;5101413;27;20073;-59
2021/11/02 01:52:06;;;;;;;2.30;1.58;;;17.50;99.90;;;;;;5135408;27;20460;-59
2021/11/02 01:54:34;;;;;;;3.13;2.17;;;17.50;99.90;;;;;;5136424;27;20043;-60
2021/11/02 01:57:02;;;;;;;4.20;1.85;;;17.50;99.90;;;;;;5100766;27;20047;-59
2021/11/02 01:59:33;;;;;;;6.85;2.15;;;17.60;99.90;;;;;;5135185;27;20039;-59
2021/11/02 02:02:30;;;;;;;8.65;3.72;;;17.60;99.90;;;;;;5103982;27;20043;-59
2021/11/02 02:05:25;;;;;;;5.03;2.92;;;17.60;99.90;;;;;;5135275;27;20370;-59
2021/11/02 02:08:29;;;;;;;5.68;3.22;;;17.60;99.90;;;;;;5134919;27;20118;-59
2021/11/02 02:11:01;;;;;;;9.20;3.25;;;17.70;99.90;;;;;;5118123;27;20046;-59
2021/11/02 02:13:48;;;;;;;7.72;3.08;;;17.70;99.90;;;;;;5118482;27;20043;-59
2021/11/02 02:16:25;;;;;;;6.00;3.40;;;17.70;99.90;;;;;;5118293;27;20035;-59
2021/11/02 02:19:32;;;;;;;4.95;3.28;;;17.60;99.90;;;;;;5119140;27;20039;-59
2021/11/02 02:22:31;;;;;;;9.85;4.05;;;17.70;99.90;;;;;;5134613;27;20095;-59
2021/11/02 02:25:30;;;;;;;6.63;3.65;;;17.70;99.90;;;;;;5129017;27;20139;-59
2021/11/02 02:28:24;;;;;;;6.25;3.47;;;17.80;99.90;;;;;;5134727;27;20096;-59
2021/11/02 02:31:15;;;;;;;9.32;4.55;;;17.70;99.90;;;;;;5134704;27;20046;-59
2021/11/02 02:33:46;;;;;;;9.00;4.65;;;17.70;99.90;;;;;;5117638;27;20055;-59
2021/11/02 02:36:29;;;;;;;7.43;4.90;;;17.70;99.90;;;;;;5134468;27;20122;-59
2021/11/02 02:39:08;;;;;;;8.18;4.28;;;17.80;99.90;;;;;;5101444;27;20142;-59
2021/11/02 02:41:40;;;;;;;11.77;3.42;;;17.80;99.90;;;;;;5117564;27;20103;-59
2021/11/02 02:44:11;;;;;;;7.90;4.35;;;17.80;99.90;;;;;;5100704;27;20483;-59
2021/11/02 02:46:39;;;;;;;7.65;4.20;;;17.80;99.90;;;;;;5117368;27;20035;-59
2021/11/02 02:49:10;;;;;;;9.30;4.75;;;17.80;99.90;;;;;;5134221;27;20485;-59
2021/11/02 02:51:42;;;;;;;7.45;4.05;;;17.80;99.90;;;;;;5134306;27;20039;-59
2021/11/02 02:54:14;;;;;;;5.78;4.53;;;17.80;99.90;;;;;;5117431;27;20053;-59
2021/11/02 02:56:46;;;;;;;7.40;3.88;;;17.80;99.90;;;;;;5117178;27;20055;-59
2021/11/02 02:59:18;;;;;;;8.95;3.85;;;17.80;99.90;;;;;;5117549;27;20373;-59
2021/11/02 03:01:47;;;;;;;10.50;4.72;;;17.80;99.90;;;;;;5117120;27;20092;-59
2021/11/02 03:04:20;;;;;;;7.82;4.05;;;17.70;99.90;;;;;;5133808;27;20138;-59
2021/11/02 03:06:51;;;;;;;8.30;3.83;;;17.70;99.90;;;;;;5117235;27;20114;-59
2021/11/02 03:09:20;;;;;;;7.00;3.30;;;17.80;99.90;;;;;;5117074;27;20134;-59
2021/11/02 03:11:49;;;;;;;6.93;3.72;;;17.80;99.90;;;;;;5116391;27;20082;-59
2021/11/02 03:14:41;;;;;;;8.43;4.63;;;17.70;99.90;;;;;;5100049;27;20607;-59
2021/11/02 03:17:13;;;;;;;4.85;2.70;;;17.80;99.90;;;;;;5133764;27;20043;-59
2021/11/02 03:58:45;;;;;;;15.55;6.78;;;18.20;99.90;;;;;;5115997;28;20047;-59
2021/11/02 04:27:00;;;;;;;19.65;7.82;;;18.30;99.90;;;;;;5134164;27;20043;-59
2021/11/02 05:08:46;;;;;;;13.07;6.15;;;18.20;99.90;;;;;;5136324;27;20092;-59
2021/11/02 05:50:04;;;;;;;6.15;1.80;;;18.10;99.90;;;;;;5124924;27;20039;-60
2021/11/02 06:00:38;;;;;;;6.68;2.72;;;18.10;99.90;;;;;;5119893;27;20130;-60
2021/11/02 06:29:04;;;;;;;4.20;2.20;;;19.60;99.90;;;;;;5115188;28;20397;-60
2021/11/02 06:31:41;;;;;;;5.47;2.10;;;19.60;99.90;;;;;;5115148;28;20861;-60
2021/11/02 06:37:04;;;;;;;4.22;2.55;;;19.70;99.90;;;;;;5114025;28;20050;-60
2021/11/02 07:18:59;;;;;;;6.07;2.30;;;23.30;99.90;;;;;;5114527;28;20482;-60
2021/11/02 07:21:38;;;;;;;14.05;4.13;;;23.60;99.90;;;;;;5113272;28;20078;-60
2021/11/02 07:24:35;;;;;;;8.95;2.40;;;23.50;99.90;;;;;;5114103;28;20485;-60
2021/11/02 08:46:36;;;;;;;8.70;2.00;;;23.50;99.90;;;;;;5099464;28;20079;-59
2021/11/02 08:49:06;;;;;;;8.50;3.35;;;23.60;99.90;;;;;;5116201;28;20047;-59
2021/11/02 08:51:35;;;;;;;5.82;2.22;;;23.50;99.90;;;;;;5116104;28;20043;-60
2021/11/02 08:54:03;;;;;;;5.03;1.95;;;23.60;99.90;;;;;;5117158;28;20043;-59
2021/11/02 08:56:30;;;;;;;2.63;1.80;;;23.70;99.90;;;;;;5115931;28;20546;-59
2021/11/02 08:58:58;;;;;;;6.43;3.35;;;23.70;99.90;;;;;;5099028;28;20044;-59
2021/11/02 09:01:42;;;;;;;8.63;2.80;;;23.90;99.90;;;;;;5115001;28;20440;-59
2021/11/02 09:04:10;;;;;;;8.13;2.08;;;24.00;99.90;;;;;;5114415;28;20142;-59
2021/11/02 09:06:41;;;;;;;11.10;3.10;;;23.90;99.90;;;;;;5114100;28;20048;-59
2021/11/02 09:09:11;;;;;;;15.85;4.53;;;23.90;99.90;;;;;;5097356;28;20052;-59
2021/11/02 09:11:40;;;;;;;6.85;2.60;;;23.90;99.90;;;;;;5115807;28;20039;-59
2021/11/02 09:14:11;;;;;;;6.43;2.33;;;23.80;99.90;;;;;;5097570;28;20554;-59
2021/11/02 09:16:41;;;;;;;6.07;2.17;;;23.80;99.90;;;;;;5114342;28;20096;-59
2021/11/02 09:19:12;;;;;;;7.05;2.85;;;23.70;99.90;;;;;;5112742;28;20059;-60
2021/11/02 09:21:40;;;;;;;12.20;2.47;;;23.60;99.90;;;;;;5114031;28;20071;-60
2021/11/02 09:24:08;;;;;;;9.70;3.58;;;23.70;99.90;;;;;;5114048;28;20058;-60
2021/11/02 09:26:41;;;;;;;9.50;2.15;;;23.70;99.90;;;;;;5115129;28;20186;-60
2021/11/02 09:29:10;;;;;;;7.78;2.33;;;23.70;99.90;;;;;;5115129;28;20040;-60
2021/11/02 09:31:38;;;;;;;10.90;2.65;;;23.80;99.90;;;;;;5113803;28;20130;-60
2021/11/02 09:34:05;;;;;;;11.32;2.90;;;23.70;99.90;;;;;;5080064;28;20496;-60
2021/11/02 09:36:46;;;;;;;9.48;2.28;;;23.80;99.90;;;;;;5096897;28;20088;-60
2021/11/02 09:39:16;;;;;;;6.97;2.55;;;23.80;99.90;;;;;;5115010;28;20040;-59
2021/11/02 09:41:47;;;;;;;6.22;3.33;;;23.70;99.90;;;;;;5114975;28;20051;-59
2021/11/02 09:44:39;;;;;;;6.03;2.78;;;23.70;99.90;;;;;;5113509;28;20047;-60
2021/11/02 09:47:45;;;;;;;7.18;2.50;;;23.70;99.90;;;;;;5113530;28;20088;-60
2021/11/02 09:50:28;;;;;;;5.55;2.17;;;23.80;99.90;;;;;;5114629;28;20043;-60
2021/11/02 09:52:59;;;;;;;6.38;2.25;;;23.80;99.90;;;;;;5114880;28;20043;-59
2021/11/02 09:55:49;;;;;;;6.47;2.78;;;23.70;99.90;;;;;;5113586;28;20059;-59
2021/11/02 09:58:21;;;;;;;7.07;2.33;;;23.60;99.90;;;;;;5113388;28;20134;-59
2021/11/02 10:01:06;;;;;;;9.52;2.60;;;23.70;99.90;;;;;;5079577;28;20134;-60
2021/11/02 10:03:44;;;;;;;7.85;2.28;;;23.70;99.90;;;;;;5112966;28;20512;-59
2021/11/02 10:06:56;;;;;;;11.30;3.25;;;23.70;99.90;;;;;;5113165;28;20082;-59
2021/11/02 10:09:46;;;;;;;10.82;2.53;;;23.80;99.90;;;;;;5112360;28;20048;-60
2021/11/02 10:12:19;;;;;;;10.98;3.50;;;24.00;99.90;;;;;;5114310;28;20036;-59
2021/11/02 10:15:19;;;;;;;7.45;3.30;;;24.00;99.90;;;;;;5113013;28;20052;-59
2021/11/02 10:18:07;;;;;;;10.18;3.47;;;24.10;99.90;;;;;;5112750;28;20050;-60
2021/11/02 10:20:54;;;;;;;11.95;3.10;;;24.10;99.90;;;;;;5096124;28;20533;-59
2021/11/02 10:23:40;;;;;;;8.48;4.00;;;24.00;99.90;;;;;;5114125;28;20527;-60
2021/11/02 10:26:25;;;;;;;6.13;2.42;;;24.00;99.90;;;;;;5114154;28;20058;-59
2021/11/02 10:29:15;;;;;;;6.57;2.90;;;24.00;99.90;;;;;;5113832;28;20355;-59
2021/11/02 10:31:55;;;;;;;9.27;2.50;;;24.00;99.90;;;;;;5112873;28;20040;-59
2021/11/02 10:34:41;;;;;;;9.55;3.65;;;24.10;99.90;;;;;;5112431;28;20058;-59
2021/11/02 10:37:21;;;;;;;;;;;24.10;99.90;;;;;;5114288;28;20485;-60
2021/11/02 10:40:15;;;;;;;8.93;2.50;;;24.20;99.90;;;;;;5112592;28;19927;-59
2021/11/02 10:43:01;;;;;;;11.10;3.67;;;24.30;99.90;;;;;;5112125;28;20066;-60
2021/11/02 10:45:38;;;;;;;11.00;3.22;;;24.30;99.90;;;;;;5111999;28;20070;-59
2021/11/02 10:48:11;;;;;;;14.68;3.88;;;24.20;99.90;;;;;;5095554;28;20323;-60
2021/11/02 10:50:48;;;;;;;12.85;4.38;;;24.30;99.90;;;;;;5095617;28;20031;-60
2021/11/02 10:53:31;;;;;;;12.50;2.67;;;24.20;99.90;;;;;;5113494;28;20493;-60
2021/11/02 10:56:11;;;;;;;10.95;3.60;;;24.30;99.90;;;;;;5112101;28;20071;-59
2021/11/02 10:58:42;;;;;;;10.40;3.05;;;24.30;99.90;;;;;;5113291;28;20047;-60
2021/11/02 11:01:12;;;;;;;8.15;2.78;;;24.40;99.90;;;;;;5112001;28;20039;-60
2021/11/02 11:03:41;;;;;;;8.98;2.80;;;24.40;99.90;;;;;;5112862;28;20047;-60
2021/11/02 11:06:13;;;;;;;6.68;2.15;;;24.40;99.90;;;;;;5111682;28;20058;-59
2021/11/02 11:08:43;;;;;;;8.85;3.10;;;24.50;99.80;;;;;;5113215;28;20451;-59
2021/11/02 11:11:17;;;;;;;9.88;2.33;;;24.40;99.80;;;;;;5095088;28;20069;-60
2021/11/02 11:13:51;;;;;;;6.63;2.30;;;24.40;99.30;;;;;;5111866;28;20035;-60
2021/11/02 11:16:22;;;;;;;6.68;2.58;;;24.40;99.50;;;;;;5111533;28;20550;-59
2021/11/02 11:18:52;;;;;;;8.60;2.42;;;24.40;99.70;;;;;;5112089;28;20089;-60
2021/11/02 11:21:26;;;;;;;7.88;2.60;;;24.50;99.70;;;;;;5111602;28;20108;-60
2021/11/02 11:24:05;;;;;;;8.48;2.35;;;24.50;99.50;;;;;;5111819;28;20130;-60
2021/11/02 11:26:34;;;;;;;8.13;3.20;;;24.50;99.80;;;;;;5094847;28;20054;-60
2021/11/02 11:29:06;;;;;;;8.15;2.47;;;24.50;99.60;;;;;;5094204;28;20196;-60
2021/11/02 11:31:37;;;;;;;6.45;2.10;;;24.50;99.60;;;;;;5112747;28;20087;-60
2021/11/02 11:34:06;;;;;;;8.05;2.38;;;24.60;98.80;;;;;;5095096;28;20055;-60
2021/11/02 11:36:39;;;;;;;4.80;2.22;;;24.60;98.70;;;;;;5094845;28;20096;-60
2021/11/02 11:39:08;;;;;;;4.32;2.33;;;24.60;99.00;;;;;;5094597;28;20047;-60
2021/11/02 11:41:36;;;;;;;5.95;2.00;;;24.60;98.00;;;;;;5111671;28;20051;-60
2021/11/02 11:44:05;;;;;;;7.18;2.05;;;24.60;98.00;;;;;;5095963;28;20054;-60
2021/11/02 11:46:33;;;;;;;6.43;2.33;;;24.60;97.70;;;;;;5096065;28;20513;-60
2021/11/02 11:49:01;;;;;;;9.30;2.67;;;24.60;98.10;;;;;;5095384;28;20043;-60
2021/11/02 11:51:31;;;;;;;5.20;2.08;;;24.60;98.50;;;;;;5112958;28;20047;-60
2021/11/02 11:54:08;;;;;;;6.63;2.83;;;24.50;98.20;;;;;;5112654;28;20042;-61
2021/11/02 11:56:38;;;;;;;8.27;2.00;;;24.50;98.60;;;;;;5113089;28;20110;-59
2021/11/02 11:59:18;;;;;;;6.75;3.03;;;24.50;98.50;;;;;;5113841;28;20043;-60
2021/11/02 12:02:11;;;;;;;5.28;1.95;;;24.50;98.50;;;;;;5113806;28;20051;-59
2021/11/02 12:04:51;;;;;;;6.93;1.63;;;24.40;98.50;;;;;;5112710;28;20444;-60
2021/11/02 12:07:28;;;;;;;7.57;2.75;;;24.40;98.40;;;;;;5113792;28;20057;-63
2021/11/02 12:10:03;;;;;;;3.92;2.38;;;24.30;98.60;;;;;;5112433;28;20517;-61
2021/11/02 12:12:33;;;;;;;3.97;1.60;;;24.20;98.20;;;;;;5113618;28;20044;-61
2021/11/02 12:15:08;;;;;;;8.18;2.42;;;24.20;98.30;;;;;;5113614;28;20192;-61
2021/11/02 12:17:44;;;;;;;5.53;1.90;;;24.20;98.70;;;;;;5113443;28;20048;-61
2021/11/02 12:20:16;;;;;;;6.38;2.13;;;24.20;98.70;;;;;;5112544;28;20044;-61
2021/11/02 12:22:51;;;;;;;4.25;1.48;;;24.20;97.90;;;;;;5112006;28;20055;-60
2021/11/02 12:25:22;;;;;;;3.80;1.52;;;24.20;97.30;;;;;;5113191;28;20519;-60
2021/11/02 12:27:51;;;;;;;6.72;1.98;;;24.20;96.80;;;;;;5113411;28;20393;-61
2021/11/02 12:30:21;;;;;;;2.78;1.90;;;24.10;97.00;;;;;;5112210;28;20043;-61
2021/11/02 12:32:52;;;;;;;3.72;1.40;;;23.90;97.20;;;;;;5112167;28;20051;-61
2021/11/02 12:35:32;;;;;;;4.82;1.92;;;23.70;97.70;;;;;;5112360;28;20062;-61
2021/11/02 12:38:04;;;;;;;4.28;1.60;;;23.60;97.80;;;;;;5110842;28;20059;-61
2021/11/02 12:40:37;;;;;;;3.50;1.83;;;23.50;97.80;;;;;;5112227;28;20127;-61
2021/11/02 12:43:26;;;;;;;7.93;2.33;;;23.40;98.30;;;;;;5112191;28;20047;-61
2021/11/02 12:45:56;;;;;;;4.63;2.45;;;23.40;98.40;;;;;;5110817;28;20142;-61
2021/11/02 12:48:26;;;;;;;8.15;2.42;;;23.30;98.40;;;;;;5112017;28;20122;-60
2021/11/02 12:51:20;;;;;;;3.55;1.50;;;23.20;98.60;;;;;;5111821;28;20039;-60
2021/11/02 12:53:56;;;;;;;2.47;1.50;;;23.10;98.50;;;;;;5115204;28;20040;-60
2021/11/02 12:56:27;;;;;;;1.77;1.15;;;22.90;98.60;;;;;;5115934;28;20105;-60
2021/11/02 12:59:21;;;;;;;2.33;1.40;;;22.80;98.80;;;;;;5115688;28;20043;-60
2021/11/02 13:01:51;;;;;;;4.95;1.98;;;22.70;99.00;;;;;;5115547;28;20071;-60
2021/11/02 13:04:20;;;;;;;10.00;2.53;;;22.60;99.30;;;;;;5097698;28;20444;-61
2021/11/02 13:06:53;;;;;;;2.95;1.42;;;22.50;99.60;;;;;;5115223;28;20042;-60
2021/11/02 13:09:23;;;;;;;6.40;2.03;;;22.50;99.80;;;;;;5115526;28;20093;-61
2021/11/02 13:12:04;;;;;;;5.35;2.78;;;22.40;99.90;;;;;;5115399;28;20501;-60
2021/11/02 13:14:43;;;;;;;3.20;1.38;;;22.40;99.80;;;;;;5115650;28;20064;-61
2021/11/02 13:17:12;;;;;;;4.28;1.70;;;22.30;99.70;;;;;;5115370;28;20493;-60
2021/11/02 13:19:47;;;;;;;2.35;1.52;;;22.30;99.90;;;;;;5114133;28;20129;-61
2021/11/02 13:22:24;;;;;;;3.85;1.63;;;22.30;99.90;;;;;;5115429;28;20436;-60
2021/11/02 13:25:07;;;;;;;3.72;1.95;;;22.30;99.90;;;;;;5113808;28;20040;-60
2021/11/02 13:27:40;;;;;;;2.08;1.50;;;22.20;99.90;;;;;;5115297;28;20051;-60
2021/11/02 13:30:27;;;;;;;6.28;1.30;;;22.30;99.90;;;;;;5115796;28;20047;-60
2021/11/02 13:33:17;;;;;;;3.95;1.30;;;22.20;99.70;;;;;;5115561;28;20359;-60
2021/11/02 13:35:50;;;;;;;4.50;2.08;;;22.20;99.70;;;;;;5115502;28;20101;-60
2021/11/02 13:38:23;;;;;;;5.07;1.77;;;22.20;99.70;;;;;;5114748;28;20486;-60
2021/11/02 13:40:53;;;;;;;9.82;2.47;;;22.10;99.30;;;;;;5096831;28;20047;-60
2021/11/02 13:43:29;;;;;;;3.05;1.63;;;22.10;99.20;;;;;;5115334;28;20070;-60
2021/11/02 13:45:57;;;;;;;3.83;2.50;;;22.10;99.40;;;;;;5113793;28;20496;-60
2021/11/02 13:48:26;;;;;;;10.57;3.70;;;22.00;99.40;;;;;;5115139;28;20135;-60
2021/11/02 13:50:57;;;;;;;9.30;2.58;;;22.00;99.40;;;;;;5113982;28;20112;-60
2021/11/02 13:53:31;;;;;;;8.05;2.92;;;21.90;99.30;;;;;;5114785;28;20051;-60
2021/11/02 13:56:01;;;;;;;2.97;1.90;;;21.90;99.20;;;;;;5114028;28;20047;-60
2021/11/02 13:58:31;;;;;;;3.67;1.50;;;21.90;99.20;;;;;;5113924;28;20142;-60
2021/11/02 14:00:59;;;;;;;5.13;1.70;;;22.00;99.10;;;;;;5113532;28;20069;-60
2021/11/02 14:03:35;;;;;;;3.95;1.90;;;22.10;98.70;;;;;;5115403;28;20165;-60
2021/11/02 14:06:05;;;;;;;5.97;2.03;;;22.10;98.20;;;;;;5115422;28;20050;-60
2021/11/02 14:08:34;;;;;;;3.80;1.60;;;22.10;98.30;;;;;;5114793;28;20043;-60
2021/11/02 14:11:01;;;;;;;4.55;1.40;;;22.10;98.40;;;;;;5116006;28;20039;-60
2021/11/02 14:13:47;;;;;;;5.93;2.22;;;22.10;98.60;;;;;;5114585;28;20035;-60
2021/11/02 14:16:27;;;;;;;3.45;1.85;;;22.10;98.30;;;;;;5114851;28;20086;-60
2021/11/02 14:18:55;;;;;;;2.92;1.65;;;22.20;98.20;;;;;;5114735;28;20040;-60
2021/11/02 14:21:43;;;;;;;5.55;1.90;;;22.10;98.00;;;;;;5114660;28;20054;-60
2021/11/02 14:24:10;;;;;;;6.55;1.58;;;22.10;98.10;;;;;;5115522;28;20475;-60
2021/11/02 14:26:47;;;;;;;3.70;1.38;;;22.00;98.10;;;;;;5115378;28;20142;-60
2021/11/02 14:29:16;;;;;;;3.50;1.92;;;22.00;98.20;;;;;;5115604;28;20036;-60
2021/11/02 14:31:47;;;;;;;3.40;1.80;;;22.00;98.30;;;;;;5115074;28;20093;-60
2021/11/02 14:34:39;;;;;;;5.15;2.70;;;22.00;98.50;;;;;;5114114;28;20035;-60
2021/11/02 14:37:15;;;;;;;4.18;1.80;;;22.00;98.40;;;;;;5107062;28;20062;-60
2021/11/02 14:40:27;;;;;;;9.15;2.10;;;22.10;98.50;;;;;;5115137;28;20043;-60
2021/11/02 14:42:57;;;;;;;4.03;1.80;;;22.10;98.10;;;;;;5109923;28;20051;-60
2021/11/02 14:45:42;;;;;;;5.22;2.42;;;22.10;97.90;;;;;;5114738;28;20032;-60
2021/11/02 14:48:29;;;;;;;3.42;1.55;;;22.10;97.80;;;;;;5114841;27;20101;-60
2021/11/02 14:50:58;;;;;;;4.88;1.55;;;22.00;97.90;;;;;;5114694;28;20134;-60
2021/11/02 14:53:34;;;;;;;3.28;1.92;;;22.00;98.10;;;;;;5097177;28;20109;-60
2021/11/02 14:56:32;;;;;;;13.02;3.50;;;21.90;98.30;;;;;;5114747;28;20043;-60
2021/11/02 14:59:01;;;;;;;12.38;2.75;;;21.90;98.90;;;;;;5101639;28;20048;-60
2021/11/02 15:01:38;;;;;;;6.30;3.75;;;21.80;99.60;;;;;;5114595;28;20035;-60
2021/11/02 15:04:19;;;;;;;18.70;4.63;;;21.80;99.90;;;;;;5113500;28;20044;-60
2021/11/02 15:06:55;;;;;;;13.35;4.70;;;21.60;99.90;;;;;;5114574;28;20032;-60
2021/11/02 15:09:27;;;;;;;11.68;3.20;;;21.60;99.90;;;;;;5097000;28;20085;-60
2021/11/02 15:11:54;;;;;;;17.83;4.85;;;21.50;99.90;;;;;;5114920;28;20044;-60
2021/11/02 15:14:34;;;;;;;16.70;4.13;;;21.40;99.90;;;;;;5114532;28;20040;-60
2021/11/02 15:17:08;;;;;;;12.88;4.47;;;21.40;99.90;;;;;;5113486;28;20047;-60
2021/11/02 15:19:43;;;;;;;14.80;5.38;;;21.30;99.90;;;;;;5114455;28;20102;-60
2021/11/02 15:22:16;;;;;;;12.52;3.63;;;21.30;99.90;;;;;;5114322;28;20047;-60
2021/11/02 15:24:51;;;;;;;13.23;5.10;;;21.30;99.90;;;;;;5113816;28;20415;-60
2021/11/02 15:27:23;;;;;;;18.77;5.07;;;21.20;99.90;;;;;;5112478;28;20568;-60
2021/11/02 15:30:02;;;;;;;10.77;4.15;;;21.10;99.90;;;;;;5114216;28;21059;-60
2021/11/02 15:32:39;;;;;;;14.05;5.05;;;21.10;99.90;;;;;;5095894;28;20420;-60
2021/11/02 15:35:10;;;;;;;13.60;4.55;;;21.10;99.90;;;;;;5113207;28;20047;-59
2021/11/02 15:37:41;;;;;;;9.75;4.60;;;21.10;99.90;;;;;;5113908;28;20043;-60
2021/11/02 15:40:12;;;;;;;16.65;4.40;;;21.00;99.90;;;;;;5112992;28;20554;-60
2021/11/02 15:42:45;;;;;;;10.25;4.10;;;21.00;99.90;;;;;;5112499;28;20548;-59
2021/11/02 15:45:32;;;;;;;;;;;20.90;99.90;;;;;;5114189;28;20063;-59
2021/11/02 15:48:05;;;;;;;10.23;4.22;;;20.80;99.90;;;;;;5114080;28;20297;-59
2021/11/02 15:50:35;;;;;;;10.60;4.57;;;20.80;99.90;;;;;;5114036;28;20462;-60
2021/11/02 15:53:09;;;;;;;13.07;4.82;;;20.80;99.90;;;;;;5095759;28;20039;-60
2021/11/02 15:55:37;;;;;;;17.60;5.55;;;20.70;99.90;;;;;;5112499;28;20131;-60
2021/11/02 15:58:08;;;;;;;19.85;4.40;;;20.60;99.90;;;;;;5113596;28;20039;-60
2021/11/02 16:00:46;;;;;;;10.60;4.93;;;20.60;99.90;;;;;;5095247;28;20044;-59
2021/11/02 16:03:15;;;;;;;10.98;4.85;;;20.60;99.90;;;;;;5095271;28;20039;-59
2021/11/02 16:05:44;;;;;;;16.77;4.60;;;20.60;99.90;;;;;;5113718;28;20039;-60
2021/11/02 16:08:19;;;;;;;13.57;5.28;;;20.50;99.90;;;;;;5114278;28;20039;-60
2021/11/02 16:10:49;;;;;;;17.73;6.15;;;20.50;99.90;;;;;;5114023;28;20035;-59
2021/11/02 16:13:25;;;;;;;13.43;4.57;;;20.50;99.90;;;;;;5114222;28;20040;-59
2021/11/02 16:15:54;;;;;;;13.02;5.30;;;20.40;99.90;;;;;;5112612;28;20044;-59
2021/11/02 16:18:26;;;;;;;13.70;4.30;;;20.40;99.90;;;;;;5112518;28;20453;-59
2021/11/02 16:20:58;;;;;;;17.65;7.28;;;20.40;99.90;;;;;;5113634;28;20066;-59
2021/11/02 16:23:39;;;;;;;15.77;8.75;;;20.30;99.90;;;;;;5112648;28;20032;-59
2021/11/02 16:26:25;;;;;;;14.10;5.55;;;20.20;99.90;;;;;;5113812;28;20342;-60
2021/11/02 16:28:58;;;;;;;9.73;5.03;;;20.10;99.90;;;;;;5116897;28;20493;-59
2021/11/02 16:31:28;;;;;;;12.40;3.88;;;20.10;99.90;;;;;;5117675;28;20040;-59
2021/11/02 16:33:57;;;;;;;13.07;4.93;;;20.10;99.90;;;;;;5116778;28;20065;-60
2021/11/02 16:36:30;;;;;;;7.68;3.67;;;20.00;99.90;;;;;;5117646;28;20126;-59
2021/11/02 16:39:16;;;;;;;15.25;3.72;;;19.80;99.90;;;;;;5116625;28;20078;-59
2021/11/02 16:41:54;;;;;;;11.52;4.38;;;19.70;99.90;;;;;;5116021;28;20505;-60
2021/11/02 16:44:49;;;;;;;11.95;5.82;;;19.70;99.90;;;;;;5116163;28;20058;-59
2021/11/02 16:47:20;;;;;;;11.45;4.72;;;19.80;99.90;;;;;;5114781;28;20449;-60
2021/11/02 16:49:48;;;;;;;11.23;4.57;;;19.70;99.90;;;;;;5116483;28;20134;-59
2021/11/02 16:52:28;;;;;;;13.05;4.60;;;19.70;99.90;;;;;;5099350;28;20449;-59
2021/11/02 16:55:09;;;;;;;13.88;6.53;;;19.80;99.90;;;;;;5116346;28;20135;-59
2021/11/02 16:57:36;;;;;;;14.43;6.60;;;19.80;99.90;;;;;;5117221;28;20389;-59
2021/11/02 17:00:12;;;;;;;13.13;6.38;;;19.80;99.90;;;;;;5117073;28;20436;-60
2021/11/02 17:02:45;;;;;;;18.23;6.50;;;19.80;99.90;;;;;;5116006;28;20043;-59
2021/11/02 17:05:21;;;;;;;22.67;7.95;;;19.80;99.90;;;;;;5117103;28;20039;-59
2021/11/02 17:07:49;;;;;;;13.27;6.47;;;19.80;99.90;;;;;;5116912;28;20088;-59
2021/11/02 17:10:23;;;;;;;15.13;5.70;;;19.70;99.90;;;;;;5098826;28;20104;-59
2021/11/02 17:12:53;;;;;;;14.27;4.45;;;19.80;99.90;;;;;;5117021;28;20050;-59
2021/11/02 17:15:50;;;;;;;11.55;4.88;;;19.90;99.90;;;;;;5116919;28;20370;-59
2021/11/02 17:18:39;;;;;;;17.65;5.88;;;19.90;99.90;;;;;;5116878;28;20046;-60
2021/11/02 17:21:09;;;;;;;12.80;5.20;;;19.80;99.90;;;;;;5116616;28;20048;-59
2021/11/02 17:23:38;;;;;;;12.85;5.05;;;19.90;99.90;;;;;;5116833;28;20062;-59
2021/11/02 17:26:07;;;;;;;13.63;4.72;;;19.80;99.90;;;;;;5116241;28;20039;-59
2021/11/02 17:28:36;;;;;;;16.52;4.88;;;19.80;99.90;;;;;;5116392;28;20443;-59
2021/11/02 17:31:07;;;;;;;19.02;4.93;;;19.80;99.90;;;;;;5116402;28;20047;-59
2021/11/02 17:33:36;;;;;;;11.68;4.80;;;19.80;99.90;;;;;;5116654;28;20042;-59
2021/11/02 17:36:07;;;;;;;13.30;6.35;;;19.80;99.90;;;;;;5116565;28;20512;-59
2021/11/02 17:38:37;;;;;;;16.33;5.60;;;19.80;99.90;;;;;;5116090;28;20044;-59
2021/11/02 17:41:05;;;;;;;8.95;4.35;;;19.80;99.90;;;;;;5114795;28;20075;-59
2021/11/02 17:43:34;;;;;;;16.35;5.50;;;19.80;99.90;;;;;;5116015;28;20486;-59
2021/11/02 17:46:03;;;;;;;12.10;5.80;;;19.80;99.90;;;;;;5115927;28;20077;-59
2021/11/02 17:48:31;;;;;;;11.05;4.40;;;19.80;99.90;;;;;;5115926;28;20040;-59
2021/11/02 17:51:00;;;;;;;12.20;4.57;;;19.70;99.90;;;;;;5116072;28;20485;-59
2021/11/02 17:53:28;;;;;;;11.60;3.85;;;19.70;99.90;;;;;;5116374;28;20405;-59
2021/11/02 17:55:57;;;;;;;11.88;3.50;;;19.70;99.90;;;;;;5114933;28;20039;-59
2021/11/02 17:58:27;;;;;;;9.25;3.42;;;19.70;99.90;;;;;;5115787;28;20486;-59
2021/11/02 18:00:59;;;;;;;14.63;4.85;;;19.70;99.90;;;;;;5098258;28;20055;-59
2021/11/02 18:03:35;;;;;;;15.38;5.18;;;19.70;99.90;;;;;;5098161;28;20079;-59
2021/11/02 18:06:06;;;;;;;11.23;4.53;;;19.70;99.90;;;;;;5115947;28;20082;-59
2021/11/02 18:08:35;;;;;;;10.13;4.90;;;19.70;99.90;;;;;;5097862;28;20056;-59
2021/11/02 18:11:04;;;;;;;15.07;6.95;;;19.70;99.90;;;;;;5115613;28;20040;-59
2021/11/02 18:13:33;;;;;;;13.02;7.05;;;19.60;99.90;;;;;;5114534;28;20043;-59
2021/11/02 18:16:02;;;;;;;14.10;7.15;;;19.60;99.90;;;;;;5115615;28;20039;-59
2021/11/02 18:18:37;;;;;;;14.07;7.68;;;19.60;99.90;;;;;;5115579;28;20459;-59